Grete Maersk — OYCY2 — position and weather

sailwx.info

Track history (hours):
 
Tides and Currents Weather Stations Pressure Air Temp Water Temp Dewpoint Dewpoint Depression Visibility Wind Speed Wind Dir Waves Ship Positions

Grete Maersk

Last reported at 2014-Dec-15 18:06 UTC. Time now 2014-Dec-19 18:11 UTC.
Position N 23°37' E 117°59'.

MMSI: 218824136.

Date/timePositionNaut miles runAvg speedWind from/ knotsBaromVisibWave heightAir tempDewpointWater temp
2014-Dec-15 18:06N 23°37' E 117°59'3220.5
2014-Dec-15 16:33N 23°19' E 117°30'2020.3
2014-Dec-15 15:33N 23°05' E 117°15'2020.0
2014-Dec-15 14:33N 22°52' E 116°58'2120.0
2014-Dec-15 13:30N 22°39' E 116°40'14417.2
2014-Dec-15 05:10N 22°17' E 114°06'3 0.2
2014-Dec-14 11:19N 22°19' E 114°07'10 8.6
2014-Dec-14 10:06N 22°10' E 114°12'20 0.7
2014-Dec-13 06:08N 22°05' E 113°52'4 7.4
2014-Dec-13 05:33N 22°09' E 113°50'1515.0
2014-Dec-13 04:33N 22°23' E 113°46'1414.4
2014-Dec-13 03:33N 22°37' E 113°42'2 0.7
2014-Dec-13 01:08N 22°39' E 113°41'11 0.9
2014-Dec-12 13:27N 22°29' E 113°45'1011.0
2014-Dec-12 12:33N 22°19' E 113°48'10 9.5
2014-Dec-12 11:33N 22°10' E 113°50'6 5.0
2014-Dec-12 10:24N 22°05' E 113°53'0 0.0
2014-Dec-12 09:18N 22°05' E 113°53'0 0.0
2014-Dec-12 08:30N 22°05' E 113°53'0 0.0
2014-Dec-12 07:30N 22°05' E 113°53'0 0.0
2014-Dec-12 06:06N 22°05' E 113°53'0 0.0
2014-Dec-12 04:06N 22°05' E 113°53'0 0.0
2014-Dec-12 01:10N 22°05' E 113°53'2 3.1
2014-Dec-12 00:33N 22°05' E 113°51'10 8.5
2014-Dec-11 23:24N 21°55' E 113°51'  
2014-Dec-07 07:20N 01°14' E 104°06'1820.0
2014-Dec-07 06:26N 01°10' E 103°49'  
Track history (hours):
 
Tides and Currents Weather Stations Pressure Air Temp Water Temp Dewpoint Dewpoint Depression Visibility Wind Speed Wind Dir Waves Ship Positions

Grete Maersk

Last reported at 2014-Dec-15 18:06 UTC. Time now 2014-Dec-19 18:11 UTC.
Position N 23°37' E 117°59'.

MMSI: 218824136.

Date/timePositionNaut miles runAvg speedWind from/ knotsBaromVisibWave heightAir tempDewpointWater temp
2014-Dec-15 18:06N 23°37' E 117°59'3220.5
2014-Dec-15 16:33N 23°19' E 117°30'2020.3
2014-Dec-15 15:33N 23°05' E 117°15'2020.0
2014-Dec-15 14:33N 22°52' E 116°58'2120.0
2014-Dec-15 13:30N 22°39' E 116°40'14417.2
2014-Dec-15 05:10N 22°17' E 114°06'3 0.2
2014-Dec-14 11:19N 22°19' E 114°07'10 8.6
2014-Dec-14 10:06N 22°10' E 114°12'20 0.7
2014-Dec-13 06:08N 22°05' E 113°52'4 7.4
2014-Dec-13 05:33N 22°09' E 113°50'1515.0
2014-Dec-13 04:33N 22°23' E 113°46'1414.4
2014-Dec-13 03:33N 22°37' E 113°42'2 0.7
2014-Dec-13 01:08N 22°39' E 113°41'11 0.9
2014-Dec-12 13:27N 22°29' E 113°45'1011.0
2014-Dec-12 12:33N 22°19' E 113°48'10 9.5
2014-Dec-12 11:33N 22°10' E 113°50'6 5.0
2014-Dec-12 10:24N 22°05' E 113°53'0 0.0
2014-Dec-12 09:18N 22°05' E 113°53'0 0.0
2014-Dec-12 08:30N 22°05' E 113°53'0 0.0
2014-Dec-12 07:30N 22°05' E 113°53'0 0.0
2014-Dec-12 06:06N 22°05' E 113°53'0 0.0
2014-Dec-12 04:06N 22°05' E 113°53'0 0.0
2014-Dec-12 01:10N 22°05' E 113°53'2 3.1
2014-Dec-12 00:33N 22°05' E 113°51'10 8.5
2014-Dec-11 23:24N 21°55' E 113°51'  
2014-Dec-07 07:20N 01°14' E 104°06'1820.0
2014-Dec-07 06:26N 01°10' E 103°49'  

Dump ship's entire track history